Time;durP1;ratioP1;P1;durP2;ratioP2;P2;SDS_P1;SDS_P2;PMS_P1;PMS_P2;Temp;Humidity;BMP_temperature;BMP_pressure;BME280_temperature;BME280_humidity;BME280_pressure;Samples;Min_cycle;Max_cycle;Signal;HPM_P1;HPM_P2
2021/04/15 00:00:46;;;;;;;11.88;6.05;;;3.40;99.90;;;;;;5015812;28;20327;-65
2021/04/15 00:03:16;;;;;;;6.63;6.00;;;3.50;99.90;;;;;;5014465;28;20244;-65
2021/04/15 00:05:42;;;;;;;7.50;5.90;;;3.40;99.90;;;;;;5016136;28;20187;-65
2021/04/15 00:08:09;;;;;;;7.43;5.80;;;3.20;93.70;;;;;;5015034;28;20675;-65
2021/04/15 00:10:41;;;;;;;7.32;5.70;;;3.20;99.90;;;;;;5016094;28;20224;-66
2021/04/15 00:13:15;;;;;;;6.25;5.47;;;3.20;99.90;;;;;;5014914;28;20188;-65
2021/04/15 00:15:41;;;;;;;11.48;6.22;;;2.90;99.90;;;;;;5015976;28;20568;-65
2021/04/15 00:18:07;;;;;;;8.13;6.05;;;3.10;99.90;;;;;;5016113;28;20609;-65
2021/04/15 00:20:32;;;;;;;10.63;6.53;;;3.10;99.90;;;;;;5016435;28;20190;-65
2021/04/15 00:22:58;;;;;;;9.43;6.87;;;3.20;99.90;;;;;;5015070;28;20188;-65
2021/04/15 00:25:24;;;;;;;7.30;5.73;;;3.30;99.90;;;;;;5015597;28;20182;-65
2021/04/15 00:27:50;;;;;;;10.40;7.65;;;3.20;99.90;;;;;;5014615;28;20321;-65
2021/04/15 00:30:16;;;;;;;9.27;6.83;;;3.30;99.90;;;;;;5015268;28;20274;-65
2021/04/15 00:32:42;;;;;;;7.88;6.13;;;3.30;90.90;;;;;;5015601;28;20174;-65
2021/04/15 00:35:08;;;;;;;11.43;6.40;;;3.20;77.00;;;;;;5015268;28;20341;-65
2021/04/15 00:37:34;;;;;;;9.82;6.60;;;3.20;55.70;;;;;;5015400;28;20179;-64
2021/04/15 00:40:00;;;;;;;12.47;5.80;;;3.20;58.70;;;;;;5015224;28;20214;-64
2021/04/15 00:42:25;;;;;;;9.60;6.13;;;3.20;58.60;;;;;;5015385;28;20619;-65
2021/04/15 00:44:54;;;;;;;9.53;7.00;;;3.10;51.20;;;;;;5015000;28;20278;-64
2021/04/15 00:47:27;;;;;;;10.13;6.47;;;2.90;45.40;;;;;;5015223;28;20423;-64
2021/04/15 00:49:56;;;;;;;11.55;7.85;;;2.80;99.90;;;;;;5015347;28;20262;-64
2021/04/15 00:52:25;;;;;;;12.23;7.45;;;2.70;99.90;;;;;;5014327;28;20187;-65
2021/04/15 00:55:01;;;;;;;15.82;6.82;;;2.70;99.90;;;;;;5013794;28;20579;-64
2021/04/15 00:57:33;;;;;;;7.53;5.55;;;2.80;99.90;;;;;;5014893;28;20451;-65
2021/04/15 00:59:59;;;;;;;6.88;5.70;;;2.60;99.90;;;;;;5014887;28;20302;-65
2021/04/15 01:02:26;;;;;;;10.17;6.83;;;2.60;99.90;;;;;;5014967;28;20262;-64
2021/04/15 01:04:56;;;;;;;8.75;6.43;;;2.90;99.90;;;;;;5014816;28;20429;-64
2021/04/15 01:07:22;;;;;;;10.27;6.30;;;2.90;99.90;;;;;;5014883;28;20565;-65
2021/04/15 01:09:49;;;;;;;9.57;6.82;;;2.80;99.90;;;;;;5013862;28;20559;-64
2021/04/15 01:12:39;;;;;;;11.55;7.32;;;2.90;99.90;;;;;;5013836;28;20245;-65
2021/04/15 01:15:17;;;;;;;12.20;6.20;;;3.00;99.90;;;;;;5013550;28;20514;-64
2021/04/15 01:17:54;;;;;;;12.02;7.05;;;3.00;99.90;;;;;;5014726;28;20226;-65
2021/04/15 01:20:58;;;;;;;13.77;6.93;;;2.90;99.90;;;;;;5013693;28;20358;-65
2021/04/15 01:23:31;;;;;;;14.07;7.07;;;2.70;99.90;;;;;;5014360;28;20185;-65
2021/04/15 01:26:18;;;;;;;8.80;6.55;;;2.70;99.90;;;;;;5014690;28;20286;-65
2021/04/15 01:29:21;;;;;;;14.95;8.10;;;2.60;99.90;;;;;;5014627;28;20175;-65
2021/04/15 01:32:16;;;;;;;9.50;6.05;;;2.70;99.90;;;;;;5014503;28;20262;-65
2021/04/15 01:34:45;;;;;;;12.68;6.20;;;2.70;99.90;;;;;;5014330;28;20695;-65
2021/04/15 01:37:34;;;;;;;8.90;6.05;;;2.60;99.90;;;;;;5014398;28;20196;-65
2021/04/15 01:40:15;;;;;;;10.10;6.63;;;2.70;99.90;;;;;;5014290;28;20559;-65
2021/04/15 01:43:01;;;;;;;7.43;6.60;;;2.60;99.90;;;;;;5013387;28;20500;-64
2021/04/15 01:45:28;;;;;;;9.25;5.65;;;2.80;99.90;;;;;;5013993;28;20175;-64
2021/04/15 01:48:01;;;;;;;7.88;6.00;;;2.80;99.90;;;;;;5014547;28;20178;-64
2021/04/15 01:50:38;;;;;;;9.25;7.30;;;2.80;87.20;;;;;;5014194;28;20272;-64
2021/04/15 01:53:11;;;;;;;8.05;6.10;;;2.60;76.40;;;;;;5014210;28;20253;-64
2021/04/15 01:56:17;;;;;;;10.77;6.63;;;2.60;93.10;;;;;;5014150;28;20199;-64
2021/04/15 01:58:48;;;;;;;11.27;5.63;;;2.60;98.30;;;;;;5006591;28;20213;-64
2021/04/15 02:01:20;;;;;;;10.85;6.57;;;2.70;99.00;;;;;;5014121;28;20201;-65
2021/04/15 02:03:49;;;;;;;9.48;6.05;;;2.60;83.10;;;;;;5013900;28;20263;-64
2021/04/15 02:06:24;;;;;;;8.27;5.95;;;2.60;80.50;;;;;;5013902;28;20174;-65
2021/04/15 02:08:56;;;;;;;7.00;6.00;;;2.50;89.90;;;;;;5013931;28;20184;-65
2021/04/15 02:11:28;;;;;;;6.85;5.00;;;2.50;95.00;;;;;;5013905;28;20190;-65
2021/04/15 02:13:56;;;;;;;9.85;6.65;;;2.50;97.30;;;;;;5013903;28;20725;-65
2021/04/15 02:16:25;;;;;;;7.57;6.05;;;2.60;97.10;;;;;;5013971;28;20198;-65
2021/04/15 02:19:11;;;;;;;11.13;6.65;;;2.60;83.70;;;;;;5012889;28;20203;-65
2021/04/15 02:22:02;;;;;;;6.57;5.43;;;2.60;56.00;;;;;;5013871;28;20195;-64
2021/04/15 02:24:37;;;;;;;10.07;5.13;;;2.50;51.50;;;;;;5013572;28;20222;-64
2021/04/15 02:27:32;;;;;;;8.20;6.03;;;2.50;45.60;;;;;;5016848;28;20674;-65
2021/04/15 02:30:07;;;;;;;7.47;6.53;;;2.60;41.30;;;;;;5017788;28;20184;-65
2021/04/15 02:32:38;;;;;;;9.35;5.70;;;2.60;16.70;;;;;;5017983;28;20185;-65
2021/04/15 02:35:10;;;;;;;7.00;5.30;;;2.50;1.00;;;;;;5017739;28;20493;-65
2021/04/15 02:37:44;;;;;;;10.45;6.47;;;2.50;1.00;;;;;;5018206;28;20191;-64
2021/04/15 02:40:19;;;;;;;9.82;6.35;;;2.60;1.00;;;;;;5017677;28;20215;-65
2021/04/15 02:42:45;;;;;;;9.57;5.63;;;2.70;1.00;;;;;;5017852;28;20206;-64
2021/04/15 02:45:39;;;;;;;8.23;5.60;;;2.70;1.00;;;;;;5017458;28;20179;-65
2021/04/15 02:48:31;;;;;;;8.65;5.70;;;2.80;1.00;;;;;;5017513;28;20178;-65
2021/04/15 02:51:09;;;;;;;11.88;6.95;;;2.90;1.00;;;;;;5014297;28;20286;-65
2021/04/15 02:54:01;;;;;;;7.20;5.72;;;2.70;1.00;;;;;;5017045;28;20170;-64
2021/04/15 02:56:42;;;;;;;7.43;4.68;;;2.60;1.00;;;;;;5012670;28;20299;-65
2021/04/15 02:59:19;;;;;;;8.77;5.47;;;2.50;1.00;;;;;;5017564;28;20209;-65
2021/04/15 03:01:57;;;;;;;9.07;5.90;;;2.50;1.00;;;;;;5017396;28;20235;-65
2021/04/15 03:04:24;;;;;;;8.93;5.40;;;2.50;1.00;;;;;;5015886;28;20213;-65
2021/04/15 03:06:53;;;;;;;8.68;5.45;;;2.50;1.00;;;;;;5017261;28;20175;-64
2021/04/15 03:09:21;;;;;;;7.50;4.70;;;2.40;1.00;;;;;;5017081;28;20229;-65
2021/04/15 03:11:54;;;;;;;7.00;4.85;;;2.40;1.00;;;;;;5017056;28;20185;-64
2021/04/15 03:14:26;;;;;;;7.00;4.97;;;2.30;1.00;;;;;;5016862;28;20172;-65
2021/04/15 03:16:59;;;;;;;8.60;5.45;;;2.40;1.00;;;;;;5017062;28;20205;-65
2021/04/15 03:19:47;;;;;;;8.68;5.45;;;2.40;1.00;;;;;;5016890;28;20217;-65
2021/04/15 03:22:19;;;;;;;7.85;5.57;;;2.50;1.00;;;;;;5016816;28;20663;-64
2021/04/15 03:24:48;;;;;;;10.60;7.90;;;2.50;1.00;;;;;;5016594;28;20186;-65
2021/04/15 03:27:29;;;;;;;9.95;6.03;;;2.50;1.00;;;;;;5016975;28;20637;-65
2021/04/15 03:30:05;;;;;;;7.47;4.72;;;2.60;1.00;;;;;;5016820;28;20218;-65
2021/04/15 03:32:38;;;;;;;12.10;6.20;;;2.60;1.00;;;;;;5016756;28;20260;-65
2021/04/15 03:35:14;;;;;;;5.10;4.60;;;2.70;1.00;;;;;;5016461;28;20540;-65
2021/04/15 03:37:44;;;;;;;5.40;4.85;;;2.40;1.00;;;;;;5015567;28;20187;-65
2021/04/15 03:40:12;;;;;;;5.90;4.95;;;2.50;1.00;;;;;;5016363;28;20218;-65
2021/04/15 03:42:47;;;;;;;12.73;5.95;;;2.40;1.00;;;;;;5016695;28;20222;-65
2021/04/15 03:45:29;;;;;;;7.85;5.43;;;2.40;1.00;;;;;;5016370;28;20332;-65
2021/04/15 03:48:00;;;;;;;7.18;5.10;;;2.30;1.00;;;;;;5016441;28;20187;-65
2021/04/15 03:50:46;;;;;;;5.53;4.88;;;2.40;1.00;;;;;;5016459;28;20178;-65
2021/04/15 03:53:17;;;;;;;9.02;5.55;;;2.40;1.00;;;;;;5016162;28;20185;-64
2021/04/15 03:55:46;;;;;;;10.90;5.70;;;2.40;1.00;;;;;;5016344;28;20244;-65
2021/04/15 03:58:32;;;;;;;9.02;6.97;;;2.40;1.00;;;;;;5016226;28;20204;-65
2021/04/15 04:01:27;;;;;;;13.20;6.97;;;2.60;1.00;;;;;;5016348;28;20214;-65
2021/04/15 04:04:15;;;;;;;8.02;5.15;;;2.70;1.00;;;;;;5015927;28;20184;-64
2021/04/15 04:06:43;;;;;;;8.90;5.57;;;2.70;1.00;;;;;;4997313;28;20194;-64
2021/04/15 04:09:15;;;;;;;8.52;5.82;;;2.80;1.00;;;;;;5016065;28;20182;-65
2021/04/15 04:11:45;;;;;;;11.98;7.70;;;2.80;1.00;;;;;;5016227;28;20183;-65
2021/04/15 04:14:26;;;;;;;10.35;5.72;;;2.80;1.00;;;;;;5015556;28;20182;-66
2021/04/15 04:17:02;;;;;;;8.95;7.03;;;2.80;1.00;;;;;;5015847;28;20182;-66
2021/04/15 04:19:35;;;;;;;8.27;6.03;;;3.20;1.00;;;;;;5016681;28;20214;-66
2021/04/15 04:22:00;;;;;;;8.73;5.95;;;3.20;1.00;;;;;;5014948;28;20187;-65
2021/04/15 04:24:48;;;;;;;9.97;8.60;;;3.10;1.00;;;;;;5015280;28;20175;-65
2021/04/15 04:27:23;;;;;;;7.93;5.60;;;3.00;1.00;;;;;;5014918;28;20181;-65
2021/04/15 04:30:01;;;;;;;10.50;5.88;;;3.00;1.00;;;;;;5015364;28;20631;-65
2021/04/15 04:32:28;;;;;;;9.07;6.53;;;3.00;1.00;;;;;;5015916;28;20250;-65
2021/04/15 04:34:56;;;;;;;8.93;6.07;;;3.00;1.00;;;;;;5015268;28;20183;-65
2021/04/15 04:37:39;;;;;;;10.70;6.72;;;2.70;1.00;;;;;;5015623;28;20703;-65
2021/04/15 04:40:36;;;;;;;5.82;5.22;;;2.50;1.00;;;;;;5015400;28;20651;-65
2021/04/15 04:43:18;;;;;;;10.48;6.43;;;2.50;1.00;;;;;;5006473;28;20191;-65
2021/04/15 04:45:44;;;;;;;6.50;5.70;;;2.50;1.00;;;;;;5015396;28;20604;-63
2021/04/15 04:48:21;;;;;;;11.50;6.50;;;2.40;1.00;;;;;;5015011;28;20189;-65
2021/04/15 04:50:51;;;;;;;10.13;5.88;;;2.60;1.00;;;;;;5015184;28;20174;-65
2021/04/15 04:53:25;;;;;;;9.95;5.85;;;2.70;1.00;;;;;;5014994;28;20178;-65
2021/04/15 04:56:12;;;;;;;10.93;6.82;;;2.90;1.00;;;;;;5015190;28;20252;-65
2021/04/15 04:58:38;;;;;;;7.93;5.75;;;3.20;1.00;;;;;;5014905;28;20221;-65
2021/04/15 05:01:06;;;;;;;10.65;7.13;;;3.50;1.00;;;;;;5015329;28;20241;-65
2021/04/15 05:03:33;;;;;;;10.93;7.32;;;3.70;1.00;;;;;;5014674;28;20191;-65
2021/04/15 05:06:05;;;;;;;8.35;6.85;;;4.00;1.00;;;;;;5014937;28;20812;-65
2021/04/15 05:08:47;;;;;;;10.23;7.60;;;4.00;99.90;;;;;;5014936;28;20177;-65
2021/04/15 05:11:13;;;;;;;10.35;6.63;;;4.70;99.90;;;;;;5015093;28;20174;-65
2021/04/15 05:13:40;;;;;;;8.80;6.25;;;5.40;1.00;;;;;;5013718;28;20188;-65
2021/04/15 05:16:06;;;;;;;7.90;6.45;;;5.50;99.90;;;;;;5015012;28;20184;-66
2021/04/15 05:18:31;;;;;;;9.83;7.20;;;5.80;1.00;;;;;;5014709;28;20184;-65
2021/04/15 05:21:10;;;;;;;8.03;6.57;;;6.40;99.90;;;;;;5013815;28;20184;-65
2021/04/15 05:23:57;;;;;;;8.68;6.00;;;6.80;1.00;;;;;;5013337;28;20203;-65
2021/04/15 05:26:25;;;;;;;7.20;6.07;;;7.20;99.90;;;;;;5014717;28;20184;-65
2021/04/15 05:28:53;;;;;;;8.73;7.03;;;7.40;99.90;;;;;;5014691;28;20185;-65
2021/04/15 05:31:22;;;;;;;9.15;6.80;;;7.60;99.90;;;;;;5014436;28;20268;-65
2021/04/15 05:33:49;;;;;;;8.40;7.50;;;8.40;1.00;;;;;;5014058;28;20177;-66
2021/04/15 05:36:22;;;;;;;9.73;6.55;;;9.20;99.90;;;;;;5014175;28;20196;-66
2021/04/15 05:38:54;;;;;;;8.82;6.53;;;9.90;99.90;;;;;;5014139;28;20245;-65
2021/04/15 05:41:45;;;;;;;8.15;6.28;;;9.80;99.90;;;;;;5013287;28;20201;-65
2021/04/15 05:44:17;;;;;;;9.27;7.05;;;10.20;28.80;;;;;;5014008;28;20177;-65
2021/04/15 05:46:49;;;;;;;10.40;7.40;;;10.20;38.40;;;;;;5014006;28;20213;-66
2021/04/15 05:49:26;;;;;;;13.05;7.13;;;9.60;99.90;;;;;;5014184;28;20189;-66
2021/04/15 05:52:10;;;;;;;8.57;6.50;;;9.90;99.90;;;;;;5013220;28;20204;-66
2021/04/15 05:54:37;;;;;;;9.80;8.02;;;10.10;76.80;;;;;;5013618;28;20213;-65
2021/04/15 05:57:15;;;;;;;8.60;7.40;;;10.50;23.60;;;;;;5013944;28;20204;-66
2021/04/15 05:59:59;;;;;;;10.18;7.03;;;11.70;1.00;;;;;;5013930;28;20507;-66
2021/04/15 06:02:39;;;;;;;8.27;6.35;;;11.50;1.00;;;;;;5013912;28;20186;-66
2021/04/15 06:05:19;;;;;;;10.68;6.75;;;11.10;1.00;;;;;;5013858;28;20380;-66
2021/04/15 06:07:48;;;;;;;9.18;6.50;;;10.80;1.00;;;;;;5014011;28;20268;-66
2021/04/15 06:10:17;;;;;;;9.43;6.65;;;11.60;1.00;;;;;;5013039;28;20643;-67
2021/04/15 06:13:02;;;;;;;6.65;6.05;;;11.30;1.00;;;;;;5013970;28;20232;-67
2021/04/15 06:15:39;;;;;;;8.50;5.70;;;11.60;1.00;;;;;;5013623;28;20221;-67
2021/04/15 06:18:29;;;;;;;8.75;5.60;;;11.70;1.00;;;;;;5013963;28;20279;-67
2021/04/15 06:21:07;;;;;;;9.20;6.25;;;12.50;1.00;;;;;;5013818;28;20251;-67
2021/04/15 06:23:40;;;;;;;7.65;5.93;;;12.90;1.00;;;;;;5013495;28;20189;-67
2021/04/15 06:26:11;;;;;;;6.72;5.45;;;13.00;1.00;;;;;;5013706;28;20279;-66
2021/04/15 06:28:42;;;;;;;10.63;6.68;;;12.90;1.00;;;;;;5013645;28;20604;-65
2021/04/15 06:31:42;;;;;;;12.43;8.95;;;12.20;1.00;;;;;;5013688;28;20178;-64
2021/04/15 06:34:09;;;;;;;8.20;5.97;;;12.50;1.00;;;;;;5012260;28;20244;-68
2021/04/15 06:36:45;;;;;;;7.10;5.35;;;12.60;1.00;;;;;;5012282;28;20194;-68
2021/04/15 06:39:38;;;;;;;7.25;6.20;;;12.50;1.00;;;;;;5014890;28;20206;-68
2021/04/15 06:42:24;;;;;;;9.10;6.43;;;12.70;1.00;;;;;;5014089;28;20210;-68
2021/04/15 06:44:50;;;;;;;9.82;6.47;;;12.30;1.00;;;;;;4994118;28;20521;-68
2021/04/15 06:47:43;;;;;;;7.87;6.90;;;11.90;1.00;;;;;;4994644;28;20210;-68
2021/04/15 06:50:18;;;;;;;11.20;7.30;;;12.50;1.00;;;;;;4997183;28;20221;-67
2021/04/15 06:52:52;;;;;;;9.23;6.53;;;12.90;1.00;;;;;;5010785;28;20192;-67
2021/04/15 06:55:44;;;;;;;8.15;6.75;;;12.10;1.00;;;;;;5013289;28;20183;-63
2021/04/15 06:58:31;;;;;;;7.25;6.28;;;10.40;20.80;;;;;;5010527;28;20197;-66
2021/04/15 07:01:00;;;;;;;6.68;5.63;;;10.00;99.90;;;;;;5013375;28;20277;-65
2021/04/15 07:03:48;;;;;;;9.77;6.32;;;9.60;99.90;;;;;;5013177;28;20178;-65
2021/04/15 07:06:19;;;;;;;12.15;7.00;;;9.30;99.90;;;;;;5013493;28;20251;-64
2021/04/15 07:09:10;;;;;;;10.40;7.32;;;9.50;99.90;;;;;;5013361;28;20193;-64
2021/04/15 07:11:55;;;;;;;9.88;5.85;;;8.20;1.00;;;;;;5013844;28;20178;-65
2021/04/15 07:14:44;;;;;;;10.18;6.68;;;7.30;91.10;;;;;;5017007;28;20261;-63
2021/04/15 07:17:28;;;;;;;9.80;5.93;;;6.90;99.90;;;;;;5014162;28;20196;-65
2021/04/15 07:20:20;;;;;;;11.27;5.70;;;7.20;97.20;;;;;;5016598;28;20213;-65
2021/04/15 07:23:31;;;;;;;7.15;5.72;;;7.40;49.20;;;;;;5032341;28;20188;-65
2021/04/15 07:26:20;;;;;;;7.50;5.70;;;7.00;1.00;;;;;;4956572;29;20184;-63
2021/04/15 07:28:52;;;;;;;6.53;5.82;;;7.00;99.90;;;;;;5016683;28;20623;-65
2021/04/15 07:31:45;;;;;;;7.85;6.40;;;6.70;99.90;;;;;;5016790;28;20220;-67
2021/04/15 07:34:34;;;;;;;8.35;5.70;;;6.80;99.90;;;;;;5016714;28;20239;-62
2021/04/15 07:37:17;;;;;;;7.72;5.40;;;6.50;99.90;;;;;;5016801;28;20196;-65
2021/04/15 07:40:14;;;;;;;11.13;5.20;;;6.20;1.00;;;;;;5016591;28;20291;-65
2021/04/15 07:43:13;;;;;;;6.68;5.32;;;6.50;1.00;;;;;;5016361;28;20224;-65
2021/04/15 07:45:49;;;;;;;16.02;4.97;;;7.20;99.90;;;;;;5016349;28;20191;-66
2021/04/15 07:48:50;;;;;;;11.23;5.47;;;7.10;99.90;;;;;;5016443;28;20484;-65
2021/04/15 07:51:21;;;;;;;6.47;4.00;;;6.90;99.90;;;;;;5016095;28;20196;-66
2021/04/15 07:54:38;;;;;;;5.72;3.80;;;6.90;85.20;;;;;;5015840;28;20196;-66
2021/04/15 07:57:44;;;;;;;10.05;3.78;;;6.90;99.90;;;;;;4990670;28;20204;-62
2021/04/15 08:00:35;;;;;;;6.10;3.38;;;7.40;1.00;;;;;;4998859;28;20224;-63
2021/04/15 08:03:35;;;;;;;7.18;3.95;;;7.20;1.00;;;;;;5016044;28;20182;-65
2021/04/15 08:06:14;;;;;;;4.57;3.25;;;7.20;1.00;;;;;;5031181;28;20262;-66
2021/04/15 08:09:13;;;;;;;5.43;3.90;;;7.20;1.00;;;;;;5015985;28;20185;-64
2021/04/15 08:12:03;;;;;;;6.15;3.33;;;7.00;1.00;;;;;;5015782;28;20623;-65
2021/04/15 08:14:47;;;;;;;8.52;4.50;;;7.70;99.90;;;;;;5015508;28;20186;-66
2021/04/15 08:17:20;;;;;;;5.20;2.90;;;7.60;1.00;;;;;;5015802;28;20260;-66
2021/04/15 08:20:13;;;;;;;3.03;2.72;;;7.40;1.00;;;;;;5016613;28;20214;-65
2021/04/15 08:23:16;;;;;;;4.70;2.17;;;7.30;1.00;;;;;;5015034;28;20189;-66
2021/04/15 08:26:10;;;;;;;4.60;2.75;;;7.60;99.90;;;;;;4996234;28;20185;-66
2021/04/15 08:29:09;;;;;;;2.90;2.60;;;7.40;99.90;;;;;;4995966;28;20249;-65
2021/04/15 08:32:01;;;;;;;3.85;2.20;;;7.90;99.90;;;;;;4996071;28;20178;-66
2021/04/15 08:34:35;;;;;;;2.90;1.95;;;7.90;99.90;;;;;;4995629;28;20184;-66
2021/04/15 08:37:39;;;;;;;3.70;2.00;;;7.80;99.90;;;;;;4995666;28;20213;-68
2021/04/15 08:40:24;;;;;;;5.32;2.53;;;8.10;99.90;;;;;;4995648;28;20229;-65
2021/04/15 08:43:05;;;;;;;2.78;2.03;;;8.20;54.80;;;;;;5003524;28;20186;-65
2021/04/15 08:45:46;;;;;;;2.25;1.80;;;8.30;1.00;;;;;;5015006;28;20640;-64
2021/04/15 08:48:52;;;;;;;3.08;1.98;;;8.50;1.00;;;;;;5030684;28;20214;-63
2021/04/15 08:51:46;;;;;;;2.90;1.67;;;8.40;1.00;;;;;;5015010;28;20329;-64
2021/04/15 08:54:35;;;;;;;2.72;1.60;;;8.40;1.00;;;;;;5013852;28;20494;-63
2021/04/15 08:57:22;;;;;;;1.98;1.20;;;8.50;1.00;;;;;;5014889;28;20185;-63
2021/04/15 09:00:09;;;;;;;2.15;1.40;;;8.40;1.00;;;;;;5014737;28;20218;-64
2021/04/15 09:02:43;;;;;;;5.47;2.20;;;8.70;1.00;;;;;;5014873;28;20190;-62
2021/04/15 09:05:28;;;;;;;1.55;1.33;;;8.80;1.00;;;;;;5014845;28;20213;-60
2021/04/15 09:08:04;;;;;;;1.33;1.10;;;8.90;1.00;;;;;;5014736;28;20217;-61
2021/04/15 09:10:49;;;;;;;1.70;1.40;;;8.40;1.00;;;;;;5014897;28;20209;-63
2021/04/15 09:13:30;;;;;;;4.80;2.00;;;8.50;1.00;;;;;;5014769;28;20694;-62
2021/04/15 09:15:55;;;;;;;1.88;1.40;;;8.70;1.00;;;;;;5015206;28;20198;-63
2021/04/15 09:18:29;;;;;;;4.40;1.40;;;8.80;1.00;;;;;;5014890;28;20623;-64
2021/04/15 09:21:21;;;;;;;2.45;1.60;;;9.00;1.00;;;;;;5014795;28;20201;-63
2021/04/15 09:24:02;;;;;;;0.88;0.80;;;9.20;1.00;;;;;;5030214;28;20183;-67
2021/04/15 09:26:44;;;;;;;2.15;1.10;;;9.20;1.00;;;;;;5014671;28;20258;-68
2021/04/15 09:29:38;;;;;;;2.15;1.95;;;9.20;1.00;;;;;;5016217;28;20186;-67
2021/04/15 09:32:20;;;;;;;2.33;1.60;;;9.10;1.00;;;;;;5015630;28;20187;-65
2021/04/15 09:35:05;;;;;;;1.20;1.10;;;9.20;1.00;;;;;;5013973;28;20244;-67
2021/04/15 09:37:53;;;;;;;1.33;1.13;;;9.60;1.00;;;;;;5013924;28;20608;-66
2021/04/15 09:40:41;;;;;;;3.95;1.50;;;9.40;1.00;;;;;;5015557;28;20217;-67
2021/04/15 09:43:19;;;;;;;3.30;0.98;;;9.30;1.00;;;;;;5017026;28;20749;-67
2021/04/15 09:46:14;;;;;;;1.25;1.00;;;9.90;1.00;;;;;;5016693;28;20190;-66
2021/04/15 09:48:59;;;;;;;2.28;1.20;;;10.30;1.00;;;;;;5014328;28;20175;-66
2021/04/15 09:51:44;;;;;;;0.88;0.85;;;10.10;1.00;;;;;;5014164;28;20231;-67
2021/04/15 09:54:52;;;;;;;1.58;1.00;;;10.00;1.00;;;;;;5029431;28;20205;-67
2021/04/15 09:57:45;;;;;;;1.67;1.25;;;10.10;1.00;;;;;;4954123;29;20188;-64
2021/04/15 10:00:20;;;;;;;1.77;0.93;;;11.00;1.00;;;;;;4954091;29;20712;-66
2021/04/15 10:03:09;;;;;;;1.50;1.02;;;10.90;1.00;;;;;;4998219;28;20210;-62
2021/04/15 10:05:59;;;;;;;1.40;1.00;;;10.10;1.00;;;;;;5014271;28;20182;-65
2021/04/15 10:08:46;;;;;;;1.13;0.73;;;10.10;1.00;;;;;;5013055;28;20191;-65
2021/04/15 10:11:42;;;;;;;1.98;0.90;;;9.90;1.00;;;;;;5013919;28;20186;-64
2021/04/15 10:14:35;;;;;;;0.80;0.80;;;10.10;1.00;;;;;;5013674;28;20175;-64
2021/04/15 10:17:21;;;;;;;2.25;0.52;;;10.00;1.00;;;;;;5013945;28;20650;-66
2021/04/15 10:20:04;;;;;;;0.60;0.60;;;9.50;1.00;;;;;;5013484;28;20276;-64
2021/04/15 10:23:07;;;;;;;0.82;0.63;;;9.40;1.00;;;;;;5013398;28;20244;-66
2021/04/15 10:26:01;;;;;;;1.70;0.82;;;9.50;1.00;;;;;;5012661;28;20318;-67
2021/04/15 10:29:02;;;;;;;0.80;0.70;;;9.70;1.00;;;;;;4993859;28;20190;-67
2021/04/15 10:31:47;;;;;;;1.35;0.95;;;10.20;1.00;;;;;;4982791;28;20273;-66
2021/04/15 10:34:47;;;;;;;1.55;0.85;;;10.50;1.00;;;;;;5013239;28;20523;-65
2021/04/15 10:37:44;;;;;;;1.35;1.00;;;10.30;1.00;;;;;;5013516;28;20179;-66
2021/04/15 10:40:51;;;;;;;0.63;0.60;;;10.20;1.00;;;;;;5013256;28;20248;-66
2021/04/15 10:43:41;;;;;;;1.63;0.85;;;9.80;1.00;;;;;;4997865;28;20204;-67
2021/04/15 10:46:25;;;;;;;2.70;1.60;;;9.90;1.00;;;;;;5013364;28;20611;-64
2021/04/15 10:48:58;;;;;;;2.00;0.70;;;10.10;1.00;;;;;;5033388;28;20197;-65
2021/04/15 10:51:38;;;;;;;1.60;1.00;;;10.30;1.00;;;;;;5017811;28;20207;-65
2021/04/15 10:54:44;;;;;;;2.20;0.95;;;10.20;1.00;;;;;;5017247;28;20229;-65
2021/04/15 10:57:15;;;;;;;1.92;1.00;;;10.60;1.00;;;;;;5016708;28;20222;-67
2021/04/15 10:59:43;;;;;;;0.70;0.65;;;11.00;1.00;;;;;;5017701;28;20297;-68
2021/04/15 11:02:19;;;;;;;1.05;0.80;;;10.70;1.00;;;;;;5017643;28;20210;-68
2021/04/15 11:04:46;;;;;;;1.35;0.85;;;10.20;1.00;;;;;;5017700;28;20171;-69
2021/04/15 11:07:24;;;;;;;1.40;1.08;;;10.60;1.00;;;;;;5017419;28;20570;-68
2021/04/15 11:09:51;;;;;;;0.88;0.68;;;11.10;1.00;;;;;;5017116;28;20174;-67
2021/04/15 11:12:30;;;;;;;0.93;0.82;;;11.10;1.00;;;;;;5017309;28;20229;-68
2021/04/15 11:15:08;;;;;;;2.45;1.00;;;10.70;1.00;;;;;;5017050;28;20465;-67
2021/04/15 11:17:42;;;;;;;1.10;0.73;;;10.20;1.00;;;;;;5016906;28;20187;-67
2021/04/15 11:20:19;;;;;;;4.10;1.00;;;10.20;1.00;;;;;;5017039;28;20252;-67
2021/04/15 11:23:15;;;;;;;2.00;1.02;;;9.80;1.00;;;;;;5017094;28;20210;-67
2021/04/15 11:25:44;;;;;;;1.00;0.80;;;10.30;1.00;;;;;;4992698;28;20575;-67
2021/04/15 11:28:32;;;;;;;2.55;1.00;;;10.40;1.00;;;;;;4997090;28;20612;-67
2021/04/15 11:31:09;;;;;;;3.10;1.23;;;10.00;1.00;;;;;;5004734;28;20186;-65
2021/04/15 11:33:37;;;;;;;0.98;0.68;;;10.00;1.00;;;;;;5015483;28;20214;-66
2021/04/15 11:36:27;;;;;;;2.28;1.02;;;10.10;1.00;;;;;;5025889;28;20198;-64
2021/04/15 11:39:05;;;;;;;1.30;0.70;;;10.00;1.00;;;;;;5022407;28;20203;-65
2021/04/15 11:41:35;;;;;;;3.05;1.10;;;9.80;1.00;;;;;;5036334;28;20182;-66
2021/04/15 11:44:09;;;;;;;6.35;1.35;;;10.00;1.00;;;;;;5019656;28;20193;-67
2021/04/15 11:46:48;;;;;;;3.75;0.95;;;10.00;1.00;;;;;;5027948;28;20208;-67
2021/04/15 11:49:19;;;;;;;2.25;0.77;;;10.10;1.00;;;;;;5027213;28;20186;-67
2021/04/15 11:52:12;;;;;;;6.03;1.30;;;10.10;1.00;;;;;;5036785;28;20665;-66
2021/04/15 11:54:39;;;;;;;2.20;1.55;;;10.40;1.00;;;;;;5035834;28;20509;-66
2021/04/15 11:57:34;;;;;;;2.80;1.60;;;10.80;1.00;;;;;;5035959;28;20209;-67
2021/04/15 11:59:59;;;;;;;1.95;0.90;;;10.60;1.00;;;;;;5026168;28;20222;-67
2021/04/15 12:03:04;;;;;;;1.00;0.77;;;10.70;1.00;;;;;;5015510;28;20183;-66
2021/04/15 12:05:38;;;;;;;5.20;1.10;;;10.20;1.00;;;;;;4996930;28;20279;-67
2021/04/15 12:08:12;;;;;;;1.38;0.90;;;10.20;1.00;;;;;;4997404;28;20195;-67
2021/04/15 12:11:16;;;;;;;5.90;2.75;;;10.30;1.00;;;;;;4996576;28;20187;-66
2021/04/15 12:13:47;;;;;;;1.33;0.98;;;10.50;1.00;;;;;;4995080;28;20179;-66
2021/04/15 12:16:33;;;;;;;1.17;0.90;;;11.30;1.00;;;;;;5002357;28;20515;-66
2021/04/15 12:20:04;;;;;;;;;;;;;;;;;;;;;
2021/04/15 12:23:44;;;;;;;2.15;1.38;;;11.50;1.00;;;;;;5015433;28;20170;-68
2021/04/15 12:26:49;;;;;;;1.00;0.90;;;11.30;1.00;;;;;;4974672;28;20637;-67
2021/04/15 12:30:17;;;;;;;;;;;;;;;;;;;;;
2021/04/15 12:33:23;;;;;;;;;;;;;;;;;;;;;
2021/04/15 12:40:03;;;;;;;;;;;;;;;;;;;;;
2021/04/15 12:46:58;;;;;;;;;;;;;;;;;;;;;
2021/04/15 12:50:20;;;;;;;;;;;;;;;;;;;;;
2021/04/15 12:53:25;;;;;;;;;;;;;;;;;;;;;
2021/04/15 12:56:41;;;;;;;;;;;;;;;;;;;;;
2021/04/15 13:03:08;;;;;;;2.10;0.75;;;10.30;1.00;;;;;;5003608;28;20262;-65
2021/04/15 13:05:42;;;;;;;2.35;0.77;;;10.30;1.00;;;;;;4994058;28;20498;-65
2021/04/15 13:08:34;;;;;;;3.10;0.90;;;10.60;1.00;;;;;;5028726;28;20437;-66
2021/04/15 13:11:06;;;;;;;8.18;1.27;;;10.50;1.00;;;;;;5014029;28;20970;-65
2021/04/15 13:13:44;;;;;;;1.35;0.85;;;10.20;1.00;;;;;;5016573;28;20182;-66
2021/04/15 13:16:32;;;;;;;1.23;0.70;;;9.90;1.00;;;;;;5019105;28;20181;-65
2021/04/15 13:21:32;;;;;;;2.05;0.88;;;10.00;1.00;;;;;;5008570;28;20312;-63
2021/04/15 13:26:34;;;;;;;2.85;1.23;;;10.10;1.00;;;;;;4991541;28;20219;-64
2021/04/15 13:29:13;;;;;;;3.55;1.00;;;10.50;1.00;;;;;;4993787;28;20194;-62
2021/04/15 13:31:40;;;;;;;1.50;0.65;;;10.90;1.00;;;;;;4995419;28;20206;-64
2021/04/15 13:34:24;;;;;;;1.83;0.82;;;10.20;1.00;;;;;;4992905;28;20199;-67
2021/04/15 13:36:52;;;;;;;1.70;1.08;;;10.20;1.00;;;;;;4995214;28;20187;-66
2021/04/15 13:39:36;;;;;;;2.30;0.85;;;10.30;1.00;;;;;;4993882;28;20222;-66
2021/04/15 13:42:08;;;;;;;1.42;1.15;;;10.70;1.00;;;;;;4994624;28;20228;-67
2021/04/15 13:44:58;;;;;;;2.90;1.70;;;10.80;1.00;;;;;;4993538;28;20272;-67
2021/04/15 13:47:46;;;;;;;2.72;2.08;;;10.90;1.00;;;;;;4994337;28;20617;-66
2021/04/15 13:50:14;;;;;;;1.20;0.80;;;11.30;1.00;;;;;;4994901;28;20248;-66
2021/04/15 13:52:40;;;;;;;0.85;0.80;;;11.20;1.00;;;;;;4994911;28;20187;-67
2021/04/15 13:55:29;;;;;;;1.10;0.68;;;10.60;1.00;;;;;;4994694;28;20619;-63
2021/04/15 13:57:55;;;;;;;1.60;0.90;;;10.50;1.00;;;;;;4994591;28;20191;-62
2021/04/15 14:00:42;;;;;;;1.55;1.02;;;10.40;1.00;;;;;;4994309;28;20222;-63
2021/04/15 14:03:12;;;;;;;1.40;1.05;;;10.30;1.00;;;;;;4994087;28;20253;-66
2021/04/15 14:05:41;;;;;;;2.65;0.88;;;10.40;1.00;;;;;;4994240;28;20175;-67
2021/04/15 14:08:40;;;;;;;1.02;0.70;;;10.40;1.00;;;;;;4994163;28;20186;-67
2021/04/15 14:11:28;;;;;;;0.50;0.50;;;10.10;1.00;;;;;;4994275;28;20186;-65
2021/04/15 14:13:57;;;;;;;1.35;0.80;;;9.80;1.00;;;;;;4994005;28;20203;-62
2021/04/15 14:16:24;;;;;;;1.65;1.10;;;9.80;1.00;;;;;;4994375;28;20602;-65
2021/04/15 14:19:15;;;;;;;6.47;1.35;;;9.80;1.00;;;;;;4994299;28;20187;-65
2021/04/15 14:21:44;;;;;;;2.95;0.90;;;9.50;1.00;;;;;;4993852;28;20229;-62
2021/04/15 14:24:15;;;;;;;0.50;0.50;;;9.50;1.00;;;;;;4994409;28;20179;-65
2021/04/15 14:26:40;;;;;;;5.00;1.02;;;9.80;1.00;;;;;;4994439;28;20515;-65
2021/04/15 14:29:23;;;;;;;1.27;0.87;;;9.80;1.00;;;;;;4994390;28;20182;-66
2021/04/15 14:31:55;;;;;;;1.17;0.65;;;9.80;1.00;;;;;;4973107;28;20182;-66
2021/04/15 14:34:38;;;;;;;1.50;0.52;;;10.00;1.00;;;;;;4973832;28;20279;-66